Flight Track Log - Related Links

Times and Time Zones

All times are in EDT time to prevent confusion due to time zone crossing. See the N300CR flight status page for this flight to view local times or setup timezone preferences in your user account.

Time Position Orientation Groundspeed Altitude Reporting Facility
EDT Latitude Longitude Course Direction KTS MPH feet Rate Location/Type
Fri 11:16:51 AM 47.8320 -122.2640 140° Southeast 199 229 4,700  Level FlightAware ADS-B
Fri 11:17:03 AM 47.8226 -122.2520 137° Southeast 218 251 5,200 2,222 Climbing FlightAware ADS-B
Fri 11:17:18 AM 47.8107 -122.2360 138° Southeast 234 269 5,700 2,063 Climbing FlightAware ADS-B
Fri 11:17:35 AM 47.7973 -122.2180 138° Southeast 248 285 6,300 1,543 Climbing FlightAware ADS-B
Fri 11:17:53 AM 47.7849 -122.2010 137° Southeast 260 299 6,600 1,235 Climbing FlightAware ADS-B
Fri 11:18:09 AM 47.7684 -122.1780 137° Southeast 268 308 7,000 2,063 Climbing FlightAware ADS-B
Fri 11:18:25 AM 47.7522 -122.1570 138° Southeast 277 319 7,700 2,710 Climbing FlightAware ADS-B
Fri 11:18:40 AM 47.7376 -122.1370 138° Southeast 285 328 8,400 2,600 Climbing FlightAware ADS-B
Fri 11:18:55 AM 47.7226 -122.1160 137° Southeast 294 338 9,000 2,400 Climbing FlightAware ADS-B
Fri 11:19:10 AM 47.7071 -122.0950 137° Southeast 297 342 9,600 2,526 Climbing FlightAware ADS-B
Fri 11:19:33 AM 47.6836 -122.0630 137° Southeast 305 351 10,600 2,364 Climbing FlightAware ADS-B
Fri 11:19:43 AM 47.6743 -122.0490 133° Southeast 318 366 10,900 1,895 Climbing FlightAware ADS-B
Fri 11:20:11 AM 47.6495 -122.0060 128° Southeast 343 395 11,800 1,925 Climbing FlightAware ADS-B
Fri 11:20:36 AM 47.6290 -121.9570 117° Southeast 363 418 12,600 2,000 Climbing FlightAware ADS-B
Fri 11:20:59 AM 47.6135 -121.8980 107° East 374 430 13,400 2,291 Climbing FlightAware ADS-B
Fri 11:21:31 AM 47.6015 -121.8170 102° East 384 442 14,700 2,636 Climbing FlightAware ADS-B
Fri 11:22:05 AM 47.5891 -121.7320 102° East 386 444 16,300 2,585 Climbing FlightAware ADS-B
Fri 11:22:36 AM 47.5775 -121.6500 101° East 397 457 17,500 2,226 Climbing FlightAware ADS-B
Fri 11:23:07 AM 47.5718 -121.5660 92° East 411 473 18,600 2,344 Climbing FlightAware ADS-B
Fri 11:23:40 AM 47.5710 -121.4660 91° East 418 481 20,000 2,095 Climbing FlightAware ADS-B
Fri 11:24:10 AM 47.5703 -121.3840 91° East 428 493 20,800 1,672 Climbing FlightAware ADS-B
Fri 11:24:41 AM 47.5694 -121.2960 91° East 439 505 21,700 1,754 Climbing FlightAware ADS-B
Fri 11:25:15 AM 47.5683 -121.1900 91° East 449 517 22,700 1,756 Climbing FlightAware ADS-B
Fri 11:25:22 AM 47.5685 -121.2162 91° East 452 520 22,900 1,371 Climbing FlightAware ADS-B
Fri 11:25:50 AM 47.5672 -121.0840 91° East 460 529 23,500 1,627 Climbing FlightAware ADS-B
Fri 11:26:21 AM 47.5659 -120.9810 91° East 468 539 24,500 1,839 Climbing FlightAware ADS-B
Fri 11:26:52 AM 47.5647 -120.8810 91° East 474 545 25,400 1,859 Climbing FlightAware ADS-B
Fri 11:27:32 AM 47.5632 -120.7490 91° East 484 557 26,700 1,868 Climbing FlightAware ADS-B
Fri 11:28:38 AM 47.5594 -120.5240 91° East 485 558 28,700 2,000 Climbing FlightAware ADS-B
Fri 11:29:11 AM 47.5599 -120.4170 89° East 501 577 30,000 2,250 Climbing FlightAware ADS-B
Fri 11:29:42 AM 47.5632 -120.3040 88° East 504 580 31,100 1,781 Climbing FlightAware ADS-B
Fri 11:30:15 AM 47.5663 -120.1950 87° East 510 587 31,900 1,754 Climbing FlightAware ADS-B
Fri 11:30:47 AM 47.5693 -120.0860 88° East 509 586 33,000 2,143 Climbing FlightAware ADS-B
Fri 11:32:07 AM 47.5750 -119.8339 88° East 498 573 35,900 2,128 Climbing Seattle Center
Fri 11:33:08 AM 47.5797 -119.6319 88° East 495 570 38,000 1,820 Climbing Seattle Center
Fri 11:34:09 AM 47.5833 -119.4394 88° East 474 545 39,600 1,073 Climbing Seattle Center
Fri 11:35:11 AM 47.5878 -119.2461 88° East 473 544 40,200 634 Climbing Seattle Center
Fri 11:36:12 AM 47.5933 -119.0467 88° East 483 556 40,900 393 Climbing Seattle Center
Fri 11:37:13 AM 47.5994 -118.8031 88° East 494 568 41,000 49 Climbing Seattle Center
Fri 11:38:14 AM 47.6028 -118.5953 89° East 502 578 41,000  Level Seattle Center
Fri 11:39:15 AM 47.6044 -118.3853 89° East 506 582 41,000  Level Seattle Center
Fri 11:40:16 AM 47.6072 -118.1750 89° East 508 585 41,000  Level Seattle Center
Fri 11:41:17 AM 47.6100 -117.9664 89° East 509 586 41,000  Level Seattle Center
Fri 11:42:18 AM 47.6117 -117.7611 89° East 506 582 41,000  Level Seattle Center
Fri 11:43:19 AM 47.6128 -117.5556 89° East 504 580 41,000  Level Seattle Center
Fri 11:44:20 AM 47.6133 -117.3469 90° East 504 580 41,000  Level Seattle Center
Fri 11:45:21 AM 47.6114 -117.1175 91° East 504 580 41,000  Level Seattle Center
Fri 11:46:22 AM 47.6144 -116.9172 89° East 503 579 41,000  Level Seattle Center
Fri 11:47:23 AM 47.6150 -116.7072 90° East 504 580 41,000  Level Seattle Center
Fri 11:48:24 AM 47.6142 -116.5006 90° East 504 580 41,000  Level Seattle Center
Fri 11:49:25 AM 47.6136 -116.2931 90° East 503 579 41,000  Level Seattle Center
Fri 11:50:26 AM 47.6117 -116.0839 91° East 504 580 41,000  Level Seattle Center
Fri 11:51:27 AM 47.6097 -115.8764 91° East 505 581 41,000  Level Seattle Center
Fri 11:52:28 AM 47.6100 -115.6686 90° East 505 581 41,000  Level Seattle Center
Fri 11:53:29 AM 47.6092 -115.4622 90° East 505 581 41,000  Level Seattle Center
Fri 11:54:30 AM 47.6053 -115.2164 91° East 505 581 41,000  Level Seattle Center
Fri 11:55:31 AM 47.6022 -115.0111 91° East 504 580 41,000 246 Level Seattle Center
Fri 11:56:32 AM 47.5972 -114.8083 92° East 503 579 41,500 519 Climbing Seattle Center
Fri 11:57:15 AM 47.5947 -114.6864 92° East 498 573 41,900 571 Climbing Salt Lake Center
Fri 11:58:17 AM 47.5894 -114.4447 92° East 496 571 42,500 480 Climbing Salt Lake Center
Fri 11:59:20 AM 47.5853 -114.2467 92° East 490 564 42,900 240 Climbing Salt Lake Center
Fri 12:00:22 PM 47.5811 -114.0469 92° East 491 565 43,000 48 Climbing Salt Lake Center
Fri 12:01:24 PM 47.5750 -113.8456 93° East 492 566 43,000  Level Salt Lake Center
Fri 12:02:26 PM 47.5706 -113.6378 92° East 504 580 43,000  Level Salt Lake Center
Fri 12:03:28 PM 47.5625 -113.3894 93° East 506 582 43,000  Level Salt Lake Center
Fri 12:04:30 PM 47.5581 -113.1825 92° East 506 582 43,000  Level Salt Lake Center
Fri 12:05:32 PM 47.5508 -112.9767 93° East 505 581 43,000  Level Salt Lake Center
Fri 12:06:34 PM 47.5433 -112.7822 93° East 505 581 43,000  Level Salt Lake Center
Fri 12:07:36 PM 47.5339 -112.5358 93° East 505 581 43,000  Level Salt Lake Center
Fri 12:08:38 PM 47.5261 -112.3297 93° East 504 580 43,000  Level Salt Lake Center
Fri 12:09:40 PM 47.5175 -112.1233 93° East 505 581 43,000  Level Salt Lake Center
Fri 12:10:42 PM 47.5100 -111.9175 93° East 504 580 43,000  Level Salt Lake Center
Fri 12:11:44 PM 47.5000 -111.7092 94° East 508 585 43,000  Level Salt Lake Center
Fri 12:12:46 PM 47.4894 -111.4614 94° East 508 585 43,000  Level Salt Lake Center
Fri 12:13:48 PM 47.4800 -111.2611 94° East 508 585 43,000 -48 Level Salt Lake Center
Fri 12:14:50 PM 47.4697 -111.0600 94° East 507 583 42,900 -48 Descending Salt Lake Center
Fri 12:15:52 PM 47.4600 -110.8569 94° East 505 581 42,900 48 Level Salt Lake Center
Fri 12:16:55 PM 47.4461 -110.6119 95° East 502 578 43,000 48 Climbing Salt Lake Center
Fri 12:17:57 PM 47.4344 -110.4061 95° East 504 580 43,000  Level Salt Lake Center
Fri 12:18:59 PM 47.4222 -110.2011 95° East 504 580 43,000  Level Salt Lake Center
Fri 12:20:01 PM 47.4103 -109.9969 95° East 502 578 43,000  Level Salt Lake Center
Fri 12:21:03 PM 47.3983 -109.7917 95° East 504 580 43,000  Level Salt Lake Center
Fri 12:22:05 PM 47.3864 -109.5861 95° East 503 579 43,000  Level Salt Lake Center
Fri 12:23:07 PM 47.3697 -109.3431 96° East 502 578 43,000  Level Salt Lake Center
Fri 12:24:09 PM 47.3564 -109.1403 95° East 500 575 43,000  Level Salt Lake Center
Fri 12:25:11 PM 47.3425 -108.9369 96° East 500 575 43,000  Level Salt Lake Center
Fri 12:26:13 PM 47.3292 -108.7344 95° East 498 573 43,000  Level Salt Lake Center
Fri 12:27:15 PM 47.3161 -108.5317 95° East 498 573 43,000  Level Salt Lake Center
Fri 12:28:17 PM 47.2983 -108.2906 96° East 498 573 43,000  Level Salt Lake Center
Fri 12:29:19 PM 47.2828 -108.1028 97° East 499 574 43,000  Level Salt Lake Center
Fri 12:30:21 PM 47.2669 -107.8989 96° East 500 575 43,000  Level Salt Lake Center
Fri 12:31:25 PM 47.2472 -107.6539 97° East 502 578 43,000  Level Salt Lake Center
Fri 12:32:25 PM 47.2306 -107.4511 97° East 502 578 43,000  Level Salt Lake Center
Fri 12:33:27 PM 47.2142 -107.2489 97° East 502 578 43,000  Level Salt Lake Center
Fri 12:34:29 PM 47.1964 -107.0456 97° East 501 577 43,000  Level Salt Lake Center
Fri 12:35:31 PM 47.1786 -106.8444 97° East 501 577 43,000  Level Salt Lake Center
Fri 12:36:33 PM 47.1606 -106.6419 97° East 500 575 43,000  Level Salt Lake Center
Fri 12:37:35 PM 47.1386 -106.4025 98° East 497 572 43,000  Level Salt Lake Center
Fri 12:38:37 PM 47.1225 -106.2228 97° East 497 572 43,000  Level Salt Lake Center
Fri 12:39:39 PM 47.1036 -106.0211 98° East 498 573 43,000  Level Salt Lake Center
Fri 12:40:41 PM 47.0833 -105.8183 98° East 499 574 43,000  Level Salt Lake Center
Fri 12:41:43 PM 47.0581 -105.5775 99° East 502 578 43,000  Level Salt Lake Center
Fri 12:42:45 PM 47.0381 -105.3772 98° East 502 578 43,000  Level Salt Lake Center
Fri 12:43:47 PM 47.0181 -105.1767 98° East 501 577 43,000  Level Salt Lake Center
Fri 12:44:49 PM 46.9978 -104.9756 98° East 501 577 43,000  Level Salt Lake Center
Fri 12:45:51 PM 46.9758 -104.7739 99° East 501 577 43,000  Level Salt Lake Center
Fri 12:46:53 PM 46.9556 -104.5767 98° East 501 577 43,000  Level Salt Lake Center
Fri 12:47:54 PM 46.9303 -104.3403 99° East 498 573 43,000  Level Salt Lake Center
Fri 12:48:56 PM 46.9072 -104.1428 100° East 494 568 43,000  Level Salt Lake Center
Fri 12:49:58 PM 46.8850 -103.9439 99° East 495 570 43,000  Level Salt Lake Center
Fri 12:51:00 PM 46.8628 -103.7450 99° East 496 571 43,000  Level Salt Lake Center
Fri 12:52:02 PM 46.8394 -103.5458 100° East 496 571 43,000  Level Salt Lake Center
Fri 12:53:04 PM 46.8114 -103.3056 100° East 501 577 43,000  Level Salt Lake Center
Fri 12:54:06 PM 46.7878 -103.1058 100° East 501 577 43,000  Level Salt Lake Center
Fri 12:55:08 PM 46.7631 -102.9064 100° East 501 577 43,000  Level Salt Lake Center
Fri 12:56:10 PM 46.7389 -102.7089 100° East 501 577 43,000  Level Salt Lake Center
Fri 12:57:12 PM 46.7147 -102.5122 100° East 500 575 43,000  Level Salt Lake Center
Fri 12:58:10 PM 46.6906 -102.3156 100° East 499 574 43,000  Level Minneapolis Center
Fri 12:59:12 PM 46.6625 -102.1189 102° East 499 574 43,000  Level Minneapolis Center
Fri 01:00:13 PM 46.6375 -101.9219 100° East 499 574 43,000  Level Minneapolis Center
Fri 01:01:15 PM 46.6047 -101.6844 101° East 500 575 43,000  Level Minneapolis Center
Fri 01:02:17 PM 46.5794 -101.5014 101° East 500 575 43,000  Level Minneapolis Center
Fri 01:03:19 PM 46.5514 -101.3072 102° East 499 574 43,000  Level Minneapolis Center
Fri 01:04:21 PM 46.5256 -101.1056 100° East 500 575 43,000  Level Minneapolis Center
Fri 01:05:23 PM 46.4925 -100.8708 101° East 499 574 43,000  Level Minneapolis Center
Fri 01:06:25 PM 46.4633 -100.6753 102° East 499 574 43,000  Level Minneapolis Center
Fri 01:07:27 PM 46.4347 -100.4789 102° East 497 572 43,000  Level Minneapolis Center
Fri 01:08:29 PM 46.4064 -100.2822 102° East 498 573 43,000  Level Minneapolis Center
Fri 01:09:30 PM 46.3767 -100.0867 102° East 498 573 43,000  Level Minneapolis Center
Fri 01:10:32 PM 46.3481 -99.8933 102° East 494 568 43,000  Level Minneapolis Center
Fri 01:11:34 PM 46.3172 -99.6978 103° East 495 570 43,000  Level Minneapolis Center
Fri 01:12:36 PM 46.2797 -99.4583 103° East 505 581 43,000  Level Minneapolis Center
Fri 01:13:38 PM 46.2511 -99.2750 103° East 505 581 43,000  Level Minneapolis Center
Fri 01:14:40 PM 46.2200 -99.0819 103° East 502 578 43,000  Level Minneapolis Center
Fri 01:15:43 PM 46.1900 -98.8903 103° East 499 574 43,000  Level Minneapolis Center
Fri 01:16:45 PM 46.1533 -98.6619 103° East 496 571 43,000  Level Minneapolis Center
Fri 01:17:47 PM 46.1222 -98.4719 103° East 495 570 43,000  Level Minneapolis Center
Fri 01:18:49 PM 46.0861 -98.2606 104° East 495 570 43,000  Level Minneapolis Center
Fri 01:19:51 PM 46.0556 -98.0844 104° East 498 573 43,000  Level Minneapolis Center
Fri 01:20:53 PM 46.0231 -97.8919 104° East 500 575 43,000  Level Minneapolis Center
Fri 01:21:55 PM 45.9839 -97.6600 104° East 500 575 43,000  Level Minneapolis Center
Fri 01:22:57 PM 45.9497 -97.4683 104° East 499 574 43,000  Level Minneapolis Center
Fri 01:23:59 PM 45.9161 -97.2750 104° East 500 575 43,000  Level Minneapolis Center
Fri 01:25:01 PM 45.8781 -97.0697 105° East 500 575 43,000  Level Minneapolis Center
Fri 01:26:03 PM 45.8436 -96.8764 104° East 500 575 43,000  Level Minneapolis Center
Fri 01:27:05 PM 45.8081 -96.6817 105° East 502 578 43,000  Level Minneapolis Center
Fri 01:28:07 PM 45.7717 -96.4864 105° East 503 579 43,000  Level Minneapolis Center
Fri 01:29:09 PM 45.7353 -96.2936 105° East 503 579 43,000  Level Minneapolis Center
Fri 01:30:11 PM 45.6917 -96.0625 105° East 503 579 43,000  Level Minneapolis Center
Fri 01:31:13 PM 45.6597 -95.8700 103° East 500 575 43,000  Level Minneapolis Center
Fri 01:32:15 PM 45.6369 -95.6711 99° East 504 580 43,000  Level Minneapolis Center
Fri 01:33:17 PM 45.6125 -95.4758 100° East 504 580 43,000  Level Minneapolis Center
Fri 01:34:19 PM 45.5881 -95.2778 100° East 504 580 43,000  Level Minneapolis Center
Fri 01:35:21 PM 45.5639 -95.0811 100° East 504 580 43,000  Level Minneapolis Center
Fri 01:36:23 PM 45.5358 -94.8569 100° East 504 580 43,000  Level Minneapolis Center
Fri 01:37:25 PM 45.5097 -94.6597 101° East 505 581 43,000  Level Minneapolis Center
Fri 01:38:28 PM 45.4831 -94.4611 101° East 508 585 43,000  Level Minneapolis Center
Fri 01:39:30 PM 45.4572 -94.2661 101° East 507 583 43,000  Level Minneapolis Center
Fri 01:45:01 PM 45.3012 -93.1481 102° East 509 586 43,000  Level FlightAware ADS-B (LPVM)
Fri 01:45:42 PM 45.2872 -93.0478 102° East 506 582 43,000  Level Minneapolis Center
Fri 01:46:44 PM 45.2575 -92.8511 102° East 506 582 43,000  Level Minneapolis Center
Fri 01:47:46 PM 45.2281 -92.6536 102° East 507 583 43,000  Level Minneapolis Center
Fri 01:48:48 PM 45.1931 -92.4167 102° East 507 583 43,000  Level Minneapolis Center
Fri 01:49:50 PM 45.1628 -92.2211 102° East 508 585 43,000  Level Minneapolis Center
Fri 01:50:52 PM 45.1333 -92.0261 102° East 507 583 43,000  Level Minneapolis Center
Fri 01:51:54 PM 45.1011 -91.8297 103° East 508 585 43,000  Level Minneapolis Center
Fri 01:52:56 PM 45.0711 -91.6350 102° East 508 585 43,000  Level Minneapolis Center
Fri 01:53:58 PM 45.0386 -91.4394 103° East 508 585 43,000  Level Minneapolis Center
Fri 01:55:00 PM 45.0072 -91.2461 103° East 508 585 43,000  Level Minneapolis Center
Fri 01:56:02 PM 44.9694 -91.0142 103° East 508 585 43,000  Level Minneapolis Center
Fri 01:57:04 PM 44.9417 -90.8414 103° East 506 582 43,000  Level Minneapolis Center
Fri 01:58:05 PM 44.9092 -90.6500 103° East 505 581 43,000  Level Minneapolis Center
Fri 01:59:08 PM 44.8703 -90.4200 103° East 505 581 43,000  Level Minneapolis Center
Fri 02:00:10 PM 44.8375 -90.2319 104° East 501 577 43,000  Level Minneapolis Center
Fri 02:01:12 PM 44.8033 -90.0369 104° East 500 575 43,000  Level Minneapolis Center
Fri 02:02:14 PM 44.7706 -89.8456 103° East 500 575 43,000  Level Minneapolis Center
Fri 02:03:16 PM 44.7364 -89.6525 104° East 504 580 43,000  Level Minneapolis Center
Fri 02:04:18 PM 44.7017 -89.4603 104° East 505 581 43,000  Level Minneapolis Center
Fri 02:05:20 PM 44.6672 -89.2683 104° East 506 582 43,000  Level Minneapolis Center
Fri 02:06:22 PM 44.6319 -89.0778 105° East 505 581 43,000  Level Minneapolis Center
Fri 02:07:24 PM 44.5903 -88.8492 104° East 505 581 43,000  Level Minneapolis Center
Fri 02:13:03 PM 44.3797 -87.7515 106° East 514 592 43,000  Level FlightAware ADS-B
Fri 02:16:12 PM 44.2626 -87.1681 106° East 515 593 43,000  Level FlightAware ADS-B
Fri 02:19:20 PM 44.1474 -86.6082 106° East 514 592 43,000  Level FlightAware ADS-B
Fri 02:20:49 PM 44.0797 -86.2847 106° East 514 592 43,000  Level Minneapolis Center
Fri 02:21:51 PM 44.0386 -86.0956 107° East 513 590 43,000  Level Minneapolis Center
Fri 02:22:53 PM 43.9978 -85.9072 107° East 513 590 43,000  Level Minneapolis Center
Fri 02:23:55 PM 43.9575 -85.7183 106° East 511 588 43,000  Level Minneapolis Center
Fri 02:24:57 PM 43.9164 -85.5297 107° East 511 588 43,000  Level Minneapolis Center
Fri 02:25:59 PM 43.8661 -85.3053 107° East 511 588 43,000  Level Minneapolis Center
Fri 02:27:01 PM 43.8250 -85.1169 107° East 511 588 43,000  Level Minneapolis Center
Fri 02:28:04 PM 43.7817 -84.9278 108° East 511 588 43,000  Level Minneapolis Center
Fri 02:29:06 PM 43.7389 -84.7419 108° East 510 587 43,000  Level Minneapolis Center
Fri 02:30:08 PM 43.6967 -84.5533 107° East 511 588 43,000  Level Minneapolis Center
Fri 02:31:10 PM 43.6525 -84.3672 108° East 511 588 43,000  Level Minneapolis Center
Fri 02:32:12 PM 43.6097 -84.1811 108° East 510 587 43,000  Level Minneapolis Center
Fri 02:33:14 PM 43.5583 -83.9594 108° East 510 587 43,000  Level Minneapolis Center
Fri 02:34:16 PM 43.5128 -83.7736 109° East 510 587 43,000  Level Minneapolis Center
Fri 02:35:18 PM 43.4681 -83.5872 108° East 510 587 43,000  Level Minneapolis Center
Fri 02:39:57 PM 43.2542 -82.6965 104° East 528 608 43,000  Level FlightAware ADS-B (CYYZ)
Fri 02:40:53 PM 43.2357 -82.5653 100° East 533 613 43,000  Level FlightAware ADS-B (CYYZ)
Fri 02:41:52 PM 43.2011 -82.3084 100° East 534 615 43,000  Level FlightAware ADS-B (CYYZ)
Fri 02:43:22 PM 43.1615 -82.0172 100° East 538 619 43,000  Level FlightAware ADS-B (CYYZ)
Fri 02:44:22 PM 43.1427 -81.8830 100° East 536 617 43,000  Level FlightAware ADS-B (CYYZ)
Fri 02:45:22 PM 43.1142 -81.6800 101° East 532 612 43,000  Level FlightAware ADS-B (CYYZ)
Fri 02:46:22 PM 43.0773 -81.4227 101° East 531 611 43,000  Level FlightAware ADS-B (CYYZ)
Fri 02:46:53 PM 43.0621 -81.3164 101° East 530 610 43,000  Level FlightAware ADS-B (CYYZ)
Fri 02:47:22 PM 43.0499 -81.2320 100° East 529 609 43,000  Level FlightAware ADS-B (CYYZ)
Fri 02:47:57 PM 43.0372 -81.1061 94° East 532 612 43,000  Level FlightAware ADS-B (CYYZ)
Fri 02:48:42 PM 43.0312 -80.9516 92° East 533 613 43,000  Level FlightAware ADS-B (CYYZ)
Fri 02:49:13 PM 43.0277 -80.8502 92° East 533 613 43,000  Level FlightAware ADS-B (CYYZ)
Fri 02:50:12 PM 43.0202 -80.6471 93° East 531 611 43,000  Level FlightAware ADS-B (CYYZ)
Fri 02:50:42 PM 43.0162 -80.5470 93° East 529 609 43,000  Level FlightAware ADS-B (CYYZ)
Fri 02:51:12 PM 43.0126 -80.4486 92° East 527 606 43,000  Level FlightAware ADS-B (CYYZ)
Fri 02:52:13 PM 43.0046 -80.2482 93° East 525 604 43,000  Level FlightAware ADS-B (CYYZ)
Fri 02:54:22 PM 42.9999 -80.1312 93° East 527 606 43,000 -41 Level FlightAware ADS-B
Fri 02:54:38 PM 42.9846 -79.7694 93° East 527 606 42,900 -800 Descending FlightAware ADS-B (CYYZ)
Fri 02:56:52 PM 42.9638 -79.3231 94° East 526 605 41,000 -603 Descending FlightAware ADS-B
Fri 02:57:47 PM 42.9546 -79.1403 93° East 524 603 41,000  Level FlightAware ADS-B (CYYZ)
Fri 02:58:18 PM 42.9496 -79.0407 94° East 519 597 41,000  Level FlightAware ADS-B (CYYZ)
Fri 02:58:58 PM 42.9472 -78.9932 94° East 519 597 41,000  Level FlightAware ADS-B
Fri 02:59:17 PM 42.9396 -78.8454 93° East 520 598 41,000  Level FlightAware ADS-B (CYYZ)
Fri 02:59:47 PM 42.9343 -78.7475 93° East 521 600 41,000  Level FlightAware ADS-B (CYYZ)
Fri 03:00:27 PM 42.9230 -78.6234 100° East 519 597 41,000  Level FlightAware ADS-B (CYYZ)
Fri 03:01:22 PM 42.8907 -78.4447 104° East 515 593 41,000  Level FlightAware ADS-B (CYYZ)
Fri 03:01:52 PM 42.8736 -78.3535 104° East 517 595 41,000  Level FlightAware ADS-B (CYYZ)
Fri 03:02:52 PM 42.8395 -78.1761 104° East 518 596 41,000  Level FlightAware ADS-B (CYYZ)
Fri 03:03:22 PM 42.8188 -78.0697 104° East 518 596 41,000  Level FlightAware ADS-B (CYYZ)
Fri 03:03:48 PM 42.8030 -77.9860 104° East 520 598 41,000  Level FlightAware ADS-B
Fri 03:04:23 PM 42.7853 -77.8966 104° East 519 597 41,000  Level FlightAware ADS-B (CYYZ)
Fri 03:05:03 PM 42.7590 -77.7590 104° East 517 595 41,000  Level FlightAware ADS-B
Fri 03:05:27 PM 42.7430 -77.6780 104° East 517 595 41,000 -918 Level FlightAware ADS-B
Fri 03:06:28 PM 42.7040 -77.4850 104° East 524 603 39,700 -1,532 Descending FlightAware ADS-B
Fri 03:07:01 PM 42.6830 -77.3800 105° East 532 612 38,600 -1,981 Descending FlightAware ADS-B
Fri 03:08:14 PM 42.6330 -77.1330 105° East 588 677 36,200 -2,020 Descending FlightAware ADS-B
Fri 03:08:42 PM 42.6159 -77.0458 105° East 603 694 35,200 -831 Descending FlightAware ADS-B (CYYZ)
Fri 03:12:05 PM 42.4680 -76.3260 105° East 572 658 33,000 -1,083 Descending FlightAware ADS-B
Fri 03:14:20 PM 42.3730 -75.8660 105° East 552 635 29,100 -1,930 Descending FlightAware ADS-B
Fri 03:14:56 PM 42.3500 -75.7333 105° East 550 633 27,500 -2,813 Descending Toronto Center
Fri 03:15:56 PM 42.2833 -75.5333 114° Southeast 530 610 24,600 -2,200 Descending Toronto Center
Fri 03:16:56 PM 42.2500 -75.3500 104° East 520 598 23,100 -2,261 Descending Toronto Center
Fri 03:18:14 PM 42.2250 -75.1675 100° East 473 544 19,400 -2,197 Descending Boston Center
Fri 03:19:18 PM 42.1917 -75.0147 106° East 440 506 17,900 -726 Descending Boston Center
Fri 03:20:18 PM 42.1442 -74.8711 114° Southeast 422 486 17,900 -99 Level Boston Center
Fri 03:21:19 PM 42.0867 -74.7339 119° Southeast 421 484 17,700 -1,190 Descending Boston Center
Fri 03:22:19 PM 42.0197 -74.5764 120° Southeast 416 479 15,500 -2,016 Descending Boston Center
Fri 03:23:21 PM 41.9650 -74.4486 120° Southeast 399 459 13,600 -1,152 Descending Boston Center
Fri 03:24:24 PM 41.9119 -74.3250 120° Southeast 384 442 13,100 -240 Descending Boston Center
Fri 03:25:26 PM 41.8583 -74.2006 120° Southeast 385 443 13,100 -443 Level Boston Center
Fri 03:26:26 PM 41.7858 -74.0861 130° Southeast 379 436 12,200 -1,190 Descending Boston Center
Fri 03:27:27 PM 41.7053 -74.0436 158° South 313 360 10,700 -1,839 Descending Boston Center
Fri 03:28:30 PM 41.6328 -74.0147 163° South 275 316 8,400 -2,274 Descending Boston Center
Fri 03:29:31 PM 41.5589 -73.9864 164° South 273 314 6,000 -1,180 Descending Boston Center
Fri 03:30:32 PM 41.4819 -73.9558 163° South 262 302 6,000 -50 Level Boston Center
Fri 03:31:32 PM 41.4153 -73.9272 162° South 255 293 5,900 -347 Descending Boston Center
Fri 03:32:33 PM 41.3617 -73.8981 158° South 197 227 5,300 -837 Descending Boston Center
Fri 03:33:41 PM 41.3167 -73.8667 152° Southeast 156 180 4,100 -1,125 Descending New York TRACON
Fri 03:34:41 PM 41.2833 -73.8500 159° South 146 168 2,900 -624 Descending New York TRACON
Fri 03:35:46 PM 41.2333 -73.8333 166° South 159 183 2,800 -50 Descending New York TRACON
Fri 03:36:41 PM 41.2000 -73.8000 143° Southeast 161 185 2,800 -209 Level New York TRACON
Fri 03:37:41 PM 41.1500 -73.7833 166° South 163 188 2,400 -571 Descending New York TRACON
Fri 03:38:47 PM 41.1167 -73.7500 143° Southeast 138 159 1,600 -762 Descending New York TRACON
Fri 03:39:47 PM 41.0833 -73.7167 143° Southeast 141 162 800 -800 Descending New York TRACON
Fri 03:41:00 PM 41.0667 -73.7000 246° West  Level FlightAware Approximate
Fri 03:48:00 PM 41.0669 -73.7076 246° West  Level Estimated
Fri 03:49:00 PM 41.0667 -73.7000 246° West  Level FlightAware Approximate

Login

Don't have an account? Register now (free) for customized features, flight alerts, and more!